Time;durP1;ratioP1;P1;durP2;ratioP2;P2;SDS_P1;SDS_P2;PMS_P1;PMS_P2;Temp;Humidity;BMP_temperature;BMP_pressure;BME280_temperature;BME280_humidity;BME280_pressure;Samples;Min_cycle;Max_cycle;Signal;HPM_P1;HPM_P2
2021/01/06 00:02:10;;;;;;;24.48;11.82;;;;;;;4.10;81.96;99853.16;5052217;28;20037;-75
2021/01/06 00:04:36;;;;;;;23.23;12.13;;;;;;;4.20;82.05;99854.53;5053741;28;20044;-74
2021/01/06 00:07:02;;;;;;;23.52;12.38;;;;;;;3.90;82.19;99820.53;5053630;28;20103;-75
2021/01/06 00:09:27;;;;;;;24.67;12.10;;;;;;;4.00;82.25;99842.97;5054032;28;20064;-75
2021/01/06 00:11:53;;;;;;;22.52;11.82;;;;;;;4.06;82.54;99856.88;5051923;28;20052;-75
2021/01/06 00:14:18;;;;;;;22.20;11.05;;;;;;;4.02;82.85;99878.09;5053757;28;20451;-74
2021/01/06 00:16:50;;;;;;;25.80;12.45;;;;;;;3.79;83.39;99864.94;5052093;28;20041;-74
2021/01/06 00:19:16;;;;;;;26.50;12.52;;;;;;;4.06;82.90;99896.47;5051996;28;20025;-74
2021/01/06 00:21:41;;;;;;;22.58;12.27;;;;;;;3.82;83.14;99843.69;5068963;28;20091;-75
2021/01/06 00:24:07;;;;;;;23.77;12.07;;;;;;;4.06;82.58;99856.88;5053005;28;20145;-75
2021/01/06 00:26:34;;;;;;;24.63;12.73;;;;;;;4.01;82.04;99839.41;5053538;28;20033;-74
2021/01/06 00:28:59;;;;;;;29.98;13.32;;;;;;;3.88;82.31;99843.47;5053039;28;20044;-75
2021/01/06 00:31:25;;;;;;;25.60;13.20;;;;;;;4.06;82.78;99875.34;5051741;28;20053;-74
2021/01/06 00:33:50;;;;;;;28.52;13.68;;;;;;;4.08;82.44;99881.41;5053184;28;20039;-72
2021/01/06 00:36:21;;;;;;;27.60;13.65;;;;;;;4.05;82.36;99876.22;5068915;28;20029;-71
2021/01/06 00:38:47;;;;;;;30.25;14.32;;;;;;;4.14;82.31;99891.72;5053117;28;20090;-70
2021/01/06 00:41:13;;;;;;;31.70;13.93;;;;;;;4.12;81.96;99897.06;5051779;28;20060;-71
2021/01/06 00:43:38;;;;;;;28.23;12.93;;;;;;;4.07;81.82;99884.97;5051645;28;20059;-71
2021/01/06 00:46:04;;;;;;;27.73;13.40;;;;;;;3.92;81.82;99847.69;5052556;28;20440;-71
2021/01/06 00:48:29;;;;;;;28.45;13.13;;;;;;;4.14;81.86;99886.44;5053288;28;20055;-71
2021/01/06 00:50:55;;;;;;;28.90;14.38;;;;;;;3.75;82.48;99836.94;5068164;28;20455;-72
2021/01/06 00:53:23;;;;;;;31.73;14.15;;;;;;;4.07;82.09;99884.97;5052981;28;20074;-71
2021/01/06 00:55:50;;;;;;;31.17;14.02;;;;;;;3.94;82.16;99861.69;5068325;28;20482;-71
2021/01/06 00:58:16;;;;;;;30.25;14.43;;;;;;;3.92;82.25;99857.41;5051760;28;20108;-71
2021/01/06 01:00:41;;;;;;;27.38;13.80;;;;;;;3.92;83.21;99882.00;5052313;28;20127;-71
2021/01/06 01:03:07;;;;;;;29.80;14.10;;;;;;;3.98;82.18;99892.31;5051439;28;20029;-69
2021/01/06 01:05:34;;;;;;;29.15;14.07;;;;;;;4.05;82.28;99889.44;5051814;28;20028;-71
2021/01/06 01:08:00;;;;;;;28.10;13.75;;;;;;;4.08;81.71;99878.78;5052724;28;20359;-70
2021/01/06 01:10:39;;;;;;;30.00;13.93;;;;;;;4.11;81.61;99881.28;5052900;28;20029;-70
2021/01/06 01:13:07;;;;;;;27.80;13.68;;;;;;;3.78;81.99;99831.56;5067669;28;20075;-71
2021/01/06 01:15:36;;;;;;;27.13;13.52;;;;;;;3.98;81.82;99854.53;5052447;28;20033;-70
2021/01/06 01:18:03;;;;;;;28.70;13.70;;;;;;;4.15;81.76;99878.47;5067840;28;20064;-71
2021/01/06 01:20:29;;;;;;;26.10;12.75;;;;;;;4.11;81.78;99873.38;5068062;28;20467;-71
2021/01/06 01:22:54;;;;;;;28.70;13.93;;;;;;;4.07;81.58;99875.28;5034590;28;20040;-71
2021/01/06 01:25:24;;;;;;;29.88;13.65;;;;;;;4.10;81.88;99874.28;5052300;28;20047;-71
2021/01/06 01:27:50;;;;;;;27.23;13.70;;;;;;;3.97;81.69;99872.13;5052775;28;20163;-70
2021/01/06 01:30:20;;;;;;;30.88;13.38;;;;;;;3.63;81.89;99816.31;5051112;28;20033;-70
2021/01/06 01:32:47;;;;;;;26.73;13.00;;;;;;;3.96;81.80;99877.47;5034566;28;20388;-71
2021/01/06 01:35:14;;;;;;;30.00;14.02;;;;;;;3.89;82.34;99882.13;4998596;28;20033;-71
2021/01/06 01:37:44;;;;;;;25.52;12.35;;;;;;;3.67;81.72;99802.97;5032433;28;20041;-71
2021/01/06 01:40:15;;;;;;;25.55;12.18;;;;;;;3.68;82.01;99811.75;5014411;28;20475;-71
2021/01/06 01:42:41;;;;;;;28.08;12.30;;;;;;;3.54;82.14;99800.84;5032694;28;20426;-71
2021/01/06 01:45:06;;;;;;;25.98;12.93;;;;;;;3.90;82.13;99861.88;5031017;28;20053;-70
2021/01/06 01:47:57;;;;;;;28.77;13.68;;;;;;;3.77;82.48;99856.22;5032459;28;20037;-70
2021/01/06 01:50:24;;;;;;;22.45;11.52;;;;;;;3.80;82.41;99850.81;5023807;28;20042;-71
2021/01/06 01:52:57;;;;;;;24.33;11.77;;;;;;;3.85;82.23;99848.00;5032564;28;20033;-71
2021/01/06 01:55:24;;;;;;;23.27;11.90;;;;;;;3.84;82.06;99841.84;5014846;28;20391;-72
2021/01/06 01:57:55;;;;;;;25.35;11.32;;;;;;;3.72;81.40;99815.97;5014675;28;20030;-70
2021/01/06 02:00:24;;;;;;;24.85;11.10;;;;;;;3.94;81.35;99842.34;5032312;28;20478;-71
2021/01/06 02:03:05;;;;;;;22.55;10.52;;;;;;;3.93;81.14;99845.91;5032144;28;20112;-72
2021/01/06 02:05:39;;;;;;;21.17;10.57;;;;;;;3.96;80.91;99840.53;5032509;28;20040;-73
2021/01/06 02:08:04;;;;;;;22.25;10.70;;;;;;;3.78;81.30;99835.97;5032115;28;20048;-72
2021/01/06 02:10:35;;;;;;;20.58;11.23;;;;;;;3.79;81.26;99813.94;5033004;28;20478;-73
2021/01/06 02:13:21;;;;;;;23.20;10.63;;;;;;;3.86;80.98;99829.50;5017736;28;20030;-73
2021/01/06 02:16:24;;;;;;;22.90;11.07;;;;;;;3.83;81.15;99823.44;5035847;28;20394;-73
2021/01/06 02:18:50;;;;;;;18.73;10.38;;;;;;;3.82;81.40;99814.69;4985486;28;20041;-73
2021/01/06 02:21:22;;;;;;;25.00;11.30;;;;;;;3.57;82.14;99800.72;5017673;28;20041;-74
2021/01/06 02:23:50;;;;;;;25.35;10.70;;;;;;;3.58;82.28;99813.00;5017917;28;20029;-73
2021/01/06 02:26:16;;;;;;;25.13;11.77;;;;;;;3.50;82.86;99809.81;5035337;28;20141;-72
2021/01/06 02:28:42;;;;;;;23.95;11.77;;;;;;;3.43;83.00;99804.75;5035704;28;20405;-72
2021/01/06 02:31:08;;;;;;;24.52;11.48;;;;;;;3.43;83.33;99804.75;5034967;28;20053;-73
2021/01/06 02:33:34;;;;;;;24.63;10.98;;;;;;;3.29;82.76;99764.88;5001348;28;20033;-72
2021/01/06 02:36:00;;;;;;;23.55;10.63;;;;;;;3.37;82.88;99794.44;5033796;28;20037;-73
2021/01/06 02:38:26;;;;;;;22.20;11.75;;;;;;;3.23;82.86;99765.13;5017630;28;20029;-72
2021/01/06 02:40:53;;;;;;;25.95;11.15;;;;;;;3.17;82.70;99744.25;5017874;28;20372;-72
2021/01/06 02:43:19;;;;;;;22.63;11.13;;;;;;;3.52;82.45;99797.41;5035158;28;20483;-72
2021/01/06 02:45:45;;;;;;;23.33;10.57;;;;;;;3.56;82.46;99801.63;5035124;28;20065;-72
2021/01/06 02:48:10;;;;;;;22.50;11.27;;;;;;;3.57;82.24;99800.72;5017247;28;20033;-72
2021/01/06 02:50:40;;;;;;;22.77;10.90;;;;;;;3.48;82.38;99780.88;5017408;28;20075;-70
2021/01/06 02:53:09;;;;;;;22.83;11.18;;;;;;;3.50;81.90;99784.28;5034917;28;20031;-71
2021/01/06 02:55:36;;;;;;;22.15;10.85;;;;;;;3.54;82.09;99803.47;5033647;28;20033;-71
2021/01/06 02:58:07;;;;;;;22.85;10.30;;;;;;;3.54;82.36;99803.47;5034655;28;20033;-70
2021/01/06 03:00:32;;;;;;;21.80;10.43;;;;;;;3.54;82.65;99795.56;5034918;28;20394;-71
2021/01/06 03:02:59;;;;;;;21.23;9.95;;;;;;;3.57;82.39;99791.06;5034861;28;20117;-70
2021/01/06 03:05:35;;;;;;;22.80;10.13;;;;;;;3.49;82.37;99776.44;5035012;28;20033;-71
2021/01/06 03:08:00;;;;;;;22.20;9.73;;;;;;;3.54;82.50;99806.97;5033522;28;20026;-71
2021/01/06 03:10:27;;;;;;;21.95;10.32;;;;;;;3.45;83.44;99795.00;5034653;28;20371;-71
2021/01/06 03:12:54;;;;;;;25.35;10.77;;;;;;;3.57;83.12;99798.09;5033575;28;20041;-71
2021/01/06 03:15:22;;;;;;;22.85;10.60;;;;;;;3.63;83.37;99795.22;5034449;28;20026;-71
2021/01/06 03:17:49;;;;;;;24.55;10.80;;;;;;;3.55;83.71;99778.81;5016761;28;20156;-71
2021/01/06 03:20:21;;;;;;;24.70;9.68;;;;;;;3.52;84.55;99781.59;5034072;28;20037;-73
2021/01/06 03:22:51;;;;;;;23.92;10.48;;;;;;;3.44;84.84;99764.28;5033816;28;20105;-73
2021/01/06 03:25:18;;;;;;;23.90;10.30;;;;;;;3.28;85.30;99736.81;5034279;28;20040;-73
2021/01/06 03:27:47;;;;;;;23.45;10.95;;;;;;;3.43;85.37;99770.47;5034589;28;20034;-72
2021/01/06 03:30:19;;;;;;;26.70;10.15;;;;;;;3.40;84.71;99772.38;5016194;28;20533;-73
2021/01/06 03:32:48;;;;;;;21.33;10.38;;;;;;;3.40;85.36;99770.59;5048851;28;20049;-74
2021/01/06 03:35:35;;;;;;;24.92;11.38;;;;;;;3.37;85.04;99757.53;5053744;28;20036;-74
2021/01/06 03:38:23;;;;;;;21.48;9.75;;;;;;;3.30;85.91;99750.78;5052729;28;20060;-80
2021/01/06 03:40:52;;;;;;;24.45;11.25;;;;;;;3.16;85.81;99718.81;5042495;28;20052;-73
2021/01/06 03:43:19;;;;;;;23.50;10.05;;;;;;;3.30;85.73;99737.59;5052692;28;20082;-75
2021/01/06 03:45:49;;;;;;;23.13;10.32;;;;;;;3.28;86.01;99744.72;5054096;28;20037;-73
2021/01/06 03:48:51;;;;;;;22.10;10.88;;;;;;;3.28;86.44;99739.44;5053789;28;20116;-74
2021/01/06 03:51:35;;;;;;;23.23;10.73;;;;;;;3.13;85.69;99700.50;5053462;28;20036;-73
2021/01/06 03:54:12;;;;;;;25.77;11.50;;;;;;;3.25;86.07;99721.09;5053775;28;20123;-73
2021/01/06 03:56:39;;;;;;;24.15;11.77;;;;;;;3.28;85.98;99726.28;5052740;28;20116;-74
2021/01/06 03:59:10;;;;;;;22.88;10.73;;;;;;;3.33;85.83;99734.00;5053433;28;20037;-73
2021/01/06 04:02:09;;;;;;;26.27;10.70;;;;;;;3.42;86.17;99739.75;5053587;28;20032;-71
2021/01/06 04:04:56;;;;;;;22.88;11.07;;;;;;;3.15;86.13;99698.66;5069166;28;20037;-72
2021/01/06 04:07:30;;;;;;;23.88;10.90;;;;;;;3.34;85.92;99730.44;5052104;28;20032;-72
2021/01/06 04:10:06;;;;;;;22.77;10.73;;;;;;;3.37;86.63;99733.78;5053505;28;20029;-72
2021/01/06 04:12:31;;;;;;;27.05;11.32;;;;;;;3.22;87.33;99723.88;5052497;28;20393;-70
2021/01/06 04:14:57;;;;;;;22.73;11.05;;;;;;;3.22;87.33;99730.91;5053284;28;20036;-72
2021/01/06 04:17:27;;;;;;;24.67;11.95;;;;;;;3.27;86.42;99729.81;5053489;28;20236;-72
2021/01/06 04:20:04;;;;;;;27.27;11.05;;;;;;;3.37;86.73;99749.63;5068873;28;20393;-71
2021/01/06 04:22:46;;;;;;;22.38;10.77;;;;;;;3.30;87.15;99732.34;5053811;28;20021;-71
2021/01/06 04:25:24;;;;;;;25.90;11.75;;;;;;;3.39;86.70;99744.31;5053070;28;20104;-72
2021/01/06 04:27:51;;;;;;;25.10;11.15;;;;;;;3.44;86.88;99737.91;5069082;28;20045;-71
2021/01/06 04:30:26;;;;;;;24.48;11.18;;;;;;;3.41;86.32;99740.69;5053193;28;20079;-73
2021/01/06 04:32:53;;;;;;;26.83;12.18;;;;;;;3.29;86.92;99717.44;5051701;28;20055;-72
2021/01/06 04:35:19;;;;;;;25.02;11.73;;;;;;;3.19;86.88;99697.63;5052034;28;20068;-72
2021/01/06 04:37:45;;;;;;;25.48;11.10;;;;;;;3.10;86.58;99664.59;5052320;28;20477;-72
2021/01/06 04:40:13;;;;;;;24.30;11.32;;;;;;;3.22;87.09;99683.47;5051611;28;20037;-72
2021/01/06 04:42:39;;;;;;;24.45;10.77;;;;;;;3.35;86.99;99706.63;5052882;28;20398;-72
2021/01/06 04:45:15;;;;;;;27.88;12.65;;;;;;;3.29;87.63;99701.63;5053279;28;20040;-72
2021/01/06 04:48:10;;;;;;;27.27;11.90;;;;;;;3.12;88.29;99698.78;5052091;28;20476;-71
2021/01/06 04:51:05;;;;;;;28.17;12.75;;;;;;;3.17;88.06;99724.03;5053198;28;20036;-70
2021/01/06 04:53:36;;;;;;;25.52;12.02;;;;;;;3.25;87.95;99742.19;5052695;28;20039;-71
2021/01/06 04:56:10;;;;;;;28.95;13.25;;;;;;;3.30;88.33;99750.78;5052809;28;20028;-72
2021/01/06 04:58:57;;;;;;;28.25;11.93;;;;;;;3.30;87.94;99748.16;5052902;28;20094;-71
2021/01/06 05:01:31;;;;;;;27.00;11.88;;;;;;;3.32;87.64;99734.91;5067923;28;20029;-72
2021/01/06 05:04:07;;;;;;;31.13;13.25;;;;;;;3.37;87.71;99736.44;5053027;28;20029;-72
2021/01/06 05:06:37;;;;;;;27.80;12.57;;;;;;;3.40;87.64;99741.59;5052791;28;20029;-73
2021/01/06 05:09:25;;;;;;;34.72;13.55;;;;;;;3.33;88.00;99750.66;5053254;28;20025;-71
2021/01/06 05:12:29;;;;;;;27.45;12.60;;;;;;;3.47;87.67;99754.53;5051750;28;20536;-74
2021/01/06 05:15:11;;;;;;;29.48;13.10;;;;;;;3.53;87.27;99754.31;5052627;28;20051;-73
2021/01/06 05:17:39;;;;;;;31.98;13.68;;;;;;;3.44;87.40;99737.91;5052636;28;20573;-74
2021/01/06 05:20:06;;;;;;;32.08;13.73;;;;;;;3.41;87.81;99753.88;5052623;28;20033;-74
2021/01/06 05:22:32;;;;;;;29.30;13.50;;;;;;;3.10;88.01;99698.00;5051127;28;20033;-74
2021/01/06 05:24:58;;;;;;;28.30;13.48;;;;;;;3.52;87.72;99761.34;5052348;28;20041;-76
2021/01/06 05:27:29;;;;;;;31.90;14.07;;;;;;;3.28;87.65;99718.38;5018069;28;20048;-74
2021/01/06 05:30:00;;;;;;;34.90;14.95;;;;;;;3.37;88.32;99736.44;5052713;28;20036;-74
2021/01/06 05:32:39;;;;;;;27.63;13.80;;;;;;;3.53;88.25;99749.03;5070417;28;20044;-74
2021/01/06 05:35:06;;;;;;;34.63;14.07;;;;;;;3.30;88.09;99719.16;5072646;28;20033;-73
2021/01/06 05:37:32;;;;;;;30.45;13.88;;;;;;;3.40;88.28;99736.34;5072096;28;20029;-73
2021/01/06 05:40:04;;;;;;;29.40;13.50;;;;;;;3.31;88.32;99731.41;5072530;28;20111;-75
2021/01/06 05:42:41;;;;;;;31.40;13.38;;;;;;;3.21;89.35;99730.06;5052183;28;20107;-75
2021/01/06 05:45:08;;;;;;;36.47;14.80;;;;;;;3.12;90.63;99710.19;5052696;28;20033;-74
2021/01/06 05:47:36;;;;;;;34.08;14.57;;;;;;;3.11;89.47;99723.41;5059908;28;20027;-74
2021/01/06 05:50:14;;;;;;;32.78;13.27;;;;;;;3.09;90.17;99741.94;5074726;28;20036;-75
2021/01/06 05:52:40;;;;;;;31.48;12.98;;;;;;;3.05;89.90;99726.28;5054915;28;20033;-74
2021/01/06 05:55:13;;;;;;;34.58;14.07;;;;;;;3.20;89.92;99738.03;5054809;28;20444;-75
2021/01/06 05:58:02;;;;;;;37.22;14.20;;;;;;;3.23;89.82;99757.22;5054943;28;20128;-71
2021/01/06 06:01:29;;;;;;;28.30;13.02;;;;;;;3.33;89.17;99755.94;5055727;28;20071;-70
2021/01/06 06:04:17;;;;;;;32.53;13.38;;;;;;;3.28;88.65;99762.28;5033513;28;20038;-72
2021/01/06 06:07:12;;;;;;;34.03;13.40;;;;;;;3.26;89.60;99743.91;5033824;28;20026;-72
2021/01/06 06:09:59;;;;;;;29.70;12.18;;;;;;;3.24;88.92;99740.47;5005150;28;20052;-71
2021/01/06 06:12:36;;;;;;;31.55;12.63;;;;;;;3.15;89.18;99752.22;5055284;28;20481;-71
2021/01/06 06:15:26;;;;;;;31.50;13.32;;;;;;;3.15;89.97;99762.75;5055393;28;20576;-72
2021/01/06 06:18:17;;;;;;;28.67;13.68;;;;;;;3.16;90.11;99753.06;5054717;28;20363;-73
2021/01/06 06:21:01;;;;;;;31.77;12.60;;;;;;;3.16;89.80;99750.44;5055466;28;20087;-73
2021/01/06 06:24:02;;;;;;;32.08;12.07;;;;;;;3.11;89.97;99755.03;5054982;28;20029;-72
2021/01/06 06:26:34;;;;;;;29.92;12.07;;;;;;;3.10;90.47;99759.47;5046899;28;20045;-70
2021/01/06 06:29:21;;;;;;;30.05;12.93;;;;;;;3.17;90.91;99762.69;5055371;28;20029;-72
2021/01/06 06:31:52;;;;;;;31.60;12.93;;;;;;;3.17;90.41;99728.44;5045172;28;20124;-71
2021/01/06 06:34:25;;;;;;;30.48;13.23;;;;;;;3.21;90.27;99730.06;5017646;28;20475;-72
2021/01/06 06:37:00;;;;;;;;;;;;;;;3.00;90.71;99715.06;5018101;28;20136;-72
2021/01/06 06:39:33;;;;;;;30.15;11.95;;;;;;;3.03;90.30;99722.84;5035152;28;19963;-72
2021/01/06 06:42:25;;;;;;;27.40;12.35;;;;;;;2.91;90.85;99729.44;5035365;28;20037;-72
2021/01/06 06:45:11;;;;;;;29.60;12.18;;;;;;;3.02;90.64;99744.84;5035478;28;20047;-72
2021/01/06 06:48:09;;;;;;;29.02;12.23;;;;;;;2.93;90.62;99737.28;5035131;28;20040;-72
2021/01/06 06:50:57;;;;;;;28.92;12.35;;;;;;;2.94;89.89;99725.81;5034994;28;20068;-71
2021/01/06 06:53:37;;;;;;;31.27;12.40;;;;;;;3.04;90.34;99732.47;5035132;28;20029;-73
2021/01/06 06:56:24;;;;;;;36.42;13.63;;;;;;;2.92;90.21;99723.25;5035051;28;20045;-71
2021/01/06 06:59:02;;;;;;;30.55;12.25;;;;;;;3.04;91.01;99741.22;5034558;28;20136;-73
2021/01/06 07:01:40;;;;;;;34.85;13.77;;;;;;;3.01;90.82;99745.75;5017241;28;20372;-72
2021/01/06 07:04:15;;;;;;;32.15;12.93;;;;;;;3.14;90.02;99749.66;5035072;28;20478;-72
2021/01/06 07:06:41;;;;;;;32.53;13.25;;;;;;;3.19;90.09;99741.59;5035088;28;20475;-72
2021/01/06 07:09:06;;;;;;;37.28;14.38;;;;;;;3.15;90.10;99730.28;5034555;28;20033;-72
2021/01/06 07:12:00;;;;;;;32.28;13.63;;;;;;;3.17;90.03;99737.19;5034618;28;20030;-72
2021/01/06 07:14:30;;;;;;;39.22;14.65;;;;;;;3.18;90.29;99743.31;5031860;28;20479;-72
2021/01/06 07:17:04;;;;;;;36.45;14.25;;;;;;;3.13;90.27;99721.56;5016816;28;20037;-72
2021/01/06 07:19:38;;;;;;;41.05;15.02;;;;;;;3.30;89.66;99742.88;5034287;28;20029;-71
2021/01/06 07:22:09;;;;;;;;;;;;;;;3.30;89.71;99745.53;5035276;28;20068;-70
2021/01/06 07:24:35;;;;;;;32.92;13.52;;;;;;;3.34;89.63;99747.09;5034493;28;20314;-72
2021/01/06 07:27:03;;;;;;;37.92;14.75;;;;;;;3.00;89.51;99697.47;5016869;28;20065;-74
2021/01/06 07:29:42;;;;;;;38.65;15.35;;;;;;;3.22;89.54;99742.31;5034073;28;20026;-71
2021/01/06 07:32:12;;;;;;;34.38;14.80;;;;;;;3.18;90.25;99751.22;5034640;28;20054;-70
2021/01/06 07:34:44;;;;;;;40.28;15.98;;;;;;;3.09;90.32;99731.38;5034209;28;20124;-72
2021/01/06 07:37:37;;;;;;;42.27;16.33;;;;;;;3.19;90.21;99758.25;5034948;28;20029;-71
2021/01/06 07:40:28;;;;;;;41.38;15.52;;;;;;;3.30;90.13;99740.25;5034878;28;20025;-71
2021/01/06 07:43:07;;;;;;;42.78;15.43;;;;;;;3.34;90.07;99747.09;5016646;28;20036;-70
2021/01/06 07:45:57;;;;;;;40.40;16.15;;;;;;;3.27;89.58;99729.81;5016477;28;20059;-70
2021/01/06 07:48:39;;;;;;;37.90;15.73;;;;;;;3.40;89.75;99746.88;5034070;28;20056;-71
2021/01/06 07:51:23;;;;;;;40.53;15.65;;;;;;;3.42;89.38;99742.41;5034338;28;20478;-71
2021/01/06 07:54:35;;;;;;;42.85;15.55;;;;;;;3.40;89.98;99741.59;5033876;28;20029;-71
2021/01/06 07:57:01;;;;;;;32.63;15.23;;;;;;;3.41;89.92;99735.41;5015808;28;20579;-72
2021/01/06 07:59:50;;;;;;;44.35;16.83;;;;;;;3.30;90.45;99720.94;5033609;28;20030;-72
2021/01/06 08:02:31;;;;;;;41.83;16.38;;;;;;;3.53;89.76;99741.13;5033921;28;20033;-71
2021/01/06 08:04:57;;;;;;;40.67;16.33;;;;;;;3.54;90.16;99740.19;5033864;28;20040;-71
2021/01/06 08:07:26;;;;;;;45.28;18.88;;;;;;;3.43;89.92;99737.97;5033345;28;20025;-72
2021/01/06 08:09:52;;;;;;;44.13;17.15;;;;;;;3.43;90.09;99730.94;5033353;28;20034;-71
2021/01/06 08:12:38;;;;;;;41.88;17.35;;;;;;;3.44;89.44;99742.34;5033881;28;20041;-71
2021/01/06 08:15:18;;;;;;;42.35;17.35;;;;;;;3.43;90.40;99746.75;5033841;28;20030;-72
2021/01/06 08:17:54;;;;;;;41.35;16.77;;;;;;;3.50;89.97;99735.97;5033275;28;20501;-71
2021/01/06 08:20:38;;;;;;;43.22;18.15;;;;;;;3.44;90.21;99742.34;5016184;28;20026;-70
2021/01/06 08:23:12;;;;;;;;;;;;;;;3.51;90.28;99750.88;5033995;28;20029;-71
2021/01/06 08:25:38;;;;;;;;;;;;;;;3.56;90.17;99747.13;5015918;28;20350;-71
2021/01/06 08:28:18;;;;;;;44.47;17.25;;;;;;;3.57;90.17;99747.97;5033446;28;20362;-71
2021/01/06 08:30:44;;;;;;;45.67;17.40;;;;;;;3.43;90.62;99725.66;5033066;28;20593;-71
2021/01/06 08:33:13;;;;;;;42.70;16.75;;;;;;;3.60;89.81;99746.09;5033150;28;20033;-70
2021/01/06 08:35:44;;;;;;;47.85;18.20;;;;;;;3.58;90.54;99755.00;5032993;28;20498;-70
2021/01/06 08:38:27;;;;;;;45.20;17.98;;;;;;;3.65;90.24;99751.16;5033209;28;20494;-70
2021/01/06 08:40:54;;;;;;;43.17;17.87;;;;;;;3.53;90.84;99755.16;5033191;28;20183;-71
2021/01/06 08:43:20;;;;;;;39.42;16.95;;;;;;;3.50;91.50;99744.75;5033335;28;20048;-71
2021/01/06 08:45:59;;;;;;;37.28;16.48;;;;;;;3.64;90.38;99742.41;5033295;28;20487;-71
2021/01/06 08:48:35;;;;;;;39.30;17.23;;;;;;;3.76;89.81;99743.69;4999104;28;20038;-72
2021/01/06 08:51:10;;;;;;;42.70;16.73;;;;;;;3.80;90.22;99745.28;5033029;28;20044;-71
2021/01/06 08:53:38;;;;;;;45.10;17.60;;;;;;;3.77;90.36;99750.69;5033330;28;20033;-71
2021/01/06 08:56:09;;;;;;;48.97;20.67;;;;;;;3.90;89.66;99741.34;5015673;28;20049;-70
2021/01/06 08:58:47;;;;;;;40.63;16.83;;;;;;;3.60;89.89;99721.50;5015191;28;20021;-71
2021/01/06 09:01:42;;;;;;;40.72;16.88;;;;;;;3.73;91.01;99749.94;5033122;28;20026;-70
2021/01/06 09:04:16;;;;;;;38.38;16.25;;;;;;;3.68;91.26;99746.66;5015595;28;20064;-71
2021/01/06 09:07:04;;;;;;;37.45;15.73;;;;;;;3.64;90.86;99733.63;5031992;28;20045;-71
2021/01/06 09:10:07;;;;;;;43.35;16.48;;;;;;;3.90;89.89;99730.81;5032839;28;20033;-71
2021/01/06 09:12:38;;;;;;;37.90;15.88;;;;;;;3.90;89.84;99729.94;5032821;28;20041;-71
2021/01/06 09:15:15;;;;;;;37.17;16.70;;;;;;;3.92;89.89;99728.09;5032996;28;20048;-71
2021/01/06 09:17:51;;;;;;;30.55;14.57;;;;;;;3.95;89.43;99743.78;5032530;28;20094;-71
2021/01/06 09:20:25;;;;;;;38.53;15.82;;;;;;;3.93;90.00;99750.91;5033352;28;20471;-72
2021/01/06 09:22:51;;;;;;;34.47;15.88;;;;;;;3.54;90.89;99716.47;5036850;28;20467;-71
2021/01/06 09:25:23;;;;;;;32.88;15.15;;;;;;;3.89;89.09;99742.28;5037095;28;21159;-71
2021/01/06 09:27:49;;;;;;;36.55;15.82;;;;;;;3.94;89.29;99727.09;5036576;28;20539;-71
2021/01/06 09:30:26;;;;;;;33.80;16.35;;;;;;;3.94;90.31;99732.38;5019052;28;20068;-71
2021/01/06 09:32:54;;;;;;;37.70;15.75;;;;;;;4.02;90.28;99725.00;5053438;28;20045;-71
2021/01/06 09:35:24;;;;;;;29.58;13.80;;;;;;;3.97;89.17;99727.00;5056606;28;20078;-71
2021/01/06 09:38:30;;;;;;;33.83;14.52;;;;;;;3.97;89.48;99732.28;5056329;28;20044;-70
2021/01/06 09:41:00;;;;;;;30.60;14.05;;;;;;;3.91;89.51;99715.84;5048109;28;20131;-71
2021/01/06 09:43:37;;;;;;;33.72;14.60;;;;;;;4.07;89.52;99743.31;5056639;28;20482;-71
2021/01/06 09:46:13;;;;;;;33.47;15.85;;;;;;;3.93;90.36;99735.94;5056707;28;20032;-71
2021/01/06 09:48:42;;;;;;;36.80;15.95;;;;;;;3.97;90.54;99736.69;5055171;28;20044;-70
2021/01/06 09:51:08;;;;;;;35.15;16.25;;;;;;;3.78;90.97;99706.72;5055244;28;20041;-71
2021/01/06 09:53:33;;;;;;;37.03;16.95;;;;;;;3.86;91.04;99729.22;5054700;28;20041;-71
2021/01/06 09:56:00;;;;;;;37.13;16.02;;;;;;;3.80;91.32;99705.72;5054886;28;20063;-71
2021/01/06 09:58:37;;;;;;;33.08;15.52;;;;;;;4.14;89.45;99733.34;5054902;28;20037;-72
2021/01/06 10:01:38;;;;;;;43.50;18.33;;;;;;;4.20;90.54;99726.03;5056201;28;20505;-70
2021/01/06 10:04:18;;;;;;;35.13;14.60;;;;;;;4.24;89.28;99722.31;5056241;28;20037;-72
2021/01/06 10:06:58;;;;;;;29.75;14.32;;;;;;;4.27;89.43;99732.78;5055793;28;20025;-71
2021/01/06 10:09:29;;;;;;;33.50;16.05;;;;;;;4.09;90.20;99722.13;5056125;28;20061;-71
2021/01/06 10:12:19;;;;;;;33.20;15.32;;;;;;;4.25;90.40;99733.75;5056308;28;20079;-70
2021/01/06 10:14:53;;;;;;;34.83;15.48;;;;;;;4.33;89.92;99731.63;5055430;28;20033;-70
2021/01/06 10:17:30;;;;;;;36.30;15.65;;;;;;;4.37;90.12;99720.03;5055888;28;20025;-72
2021/01/06 10:20:05;;;;;;;33.05;15.43;;;;;;;4.36;90.29;99715.69;5055891;28;20067;-71
2021/01/06 10:22:41;;;;;;;35.72;15.18;;;;;;;4.41;89.25;99703.13;5055489;28;20091;-77
2021/01/06 10:25:12;;;;;;;33.90;15.20;;;;;;;4.56;88.86;99715.66;5054374;28;20414;-71
2021/01/06 10:27:52;;;;;;;35.30;16.40;;;;;;;4.39;89.58;99706.75;5055649;28;20455;-71
2021/01/06 10:30:20;;;;;;;35.22;16.95;;;;;;;4.47;90.31;99710.78;5055756;28;20029;-71
2021/01/06 10:33:11;;;;;;;36.35;17.15;;;;;;;4.39;89.76;99675.91;5053721;28;20045;-71
2021/01/06 10:36:03;;;;;;;34.85;17.77;;;;;;;4.60;89.91;99711.09;5055055;28;20025;-72
2021/01/06 10:38:43;;;;;;;41.50;17.90;;;;;;;4.68;89.21;99708.09;5044864;28;20045;-70
2021/01/06 10:41:36;;;;;;;37.22;16.55;;;;;;;4.87;88.43;99706.34;5055268;28;20140;-70
2021/01/06 10:44:29;;;;;;;39.30;17.70;;;;;;;4.88;88.76;99711.56;5055304;28;20032;-70
2021/01/06 10:46:55;;;;;;;33.23;15.90;;;;;;;4.84;88.49;99709.16;5055246;28;20401;-71
2021/01/06 10:49:21;;;;;;;30.70;14.50;;;;;;;4.96;88.14;99698.00;5054133;28;20340;-70
2021/01/06 10:51:58;;;;;;;31.88;15.98;;;;;;;4.93;87.15;99703.44;5054694;28;20032;-71
2021/01/06 10:54:38;;;;;;;33.58;15.38;;;;;;;4.87;88.25;99701.94;5055134;28;20036;-70
2021/01/06 10:57:49;;;;;;;35.33;15.93;;;;;;;4.80;88.46;99692.56;5055038;28;20394;-70
2021/01/06 11:00:27;;;;;;;36.35;15.63;;;;;;;4.60;88.53;99664.41;5053555;28;20041;-71
2021/01/06 11:03:11;;;;;;;33.47;15.65;;;;;;;4.81;88.16;99693.41;5053763;28;20035;-70
2021/01/06 11:05:51;;;;;;;38.00;17.38;;;;;;;4.83;88.89;99684.50;5054904;28;20382;-70
2021/01/06 11:08:48;;;;;;;31.85;16.35;;;;;;;5.02;87.83;99681.88;5053778;28;20501;-71
2021/01/06 11:11:35;;;;;;;34.30;16.02;;;;;;;4.96;88.46;99670.72;5049880;28;20044;-71
2021/01/06 11:14:28;;;;;;;37.75;17.13;;;;;;;5.12;87.79;99667.31;5054663;28;20108;-71
2021/01/06 11:17:19;;;;;;;41.50;20.33;;;;;;;5.09;88.13;99674.50;5053299;28;20047;-70
2021/01/06 11:19:57;;;;;;;40.90;18.95;;;;;;;4.96;88.58;99660.16;5054342;28;20466;-71
2021/01/06 11:22:43;;;;;;;38.75;18.67;;;;;;;4.96;88.98;99676.88;5054807;28;20029;-71
2021/01/06 11:25:38;;;;;;;36.00;17.80;;;;;;;5.01;88.68;99681.91;5054548;28;20036;-71
2021/01/06 11:28:03;;;;;;;39.40;18.55;;;;;;;4.98;89.68;99679.44;5054848;28;20036;-71
2021/01/06 11:30:34;;;;;;;41.75;20.05;;;;;;;4.95;89.50;99674.28;5054756;28;20029;-71
2021/01/06 11:33:15;;;;;;;39.90;18.92;;;;;;;5.10;88.73;99685.00;5054352;28;20112;-71
2021/01/06 11:35:51;;;;;;;37.65;19.10;;;;;;;5.21;87.85;99678.34;5053867;28;20478;-72
2021/01/06 11:38:38;;;;;;;38.72;19.30;;;;;;;5.25;87.14;99674.66;5054726;28;20029;-71
2021/01/06 11:41:19;;;;;;;37.22;18.63;;;;;;;5.32;87.25;99668.13;5054287;28;20051;-71
2021/01/06 11:44:03;;;;;;;36.53;18.08;;;;;;;5.19;87.75;99667.84;5053562;28;20037;-71
2021/01/06 11:46:46;;;;;;;40.42;20.30;;;;;;;5.14;87.91;99681.28;5054158;28;20033;-71
2021/01/06 11:49:11;;;;;;;41.80;19.88;;;;;;;5.06;88.59;99667.56;5054395;28;20060;-70
2021/01/06 11:51:57;;;;;;;41.20;19.80;;;;;;;4.96;88.60;99653.06;5053834;28;20051;-72
2021/01/06 11:54:27;;;;;;;40.40;20.88;;;;;;;5.06;88.37;99667.56;5053645;28;20032;-71
2021/01/06 11:57:02;;;;;;;44.38;21.30;;;;;;;5.10;88.75;99671.78;5053898;28;20047;-71
2021/01/06 11:59:38;;;;;;;42.38;20.23;;;;;;;5.01;88.29;99660.78;5054203;28;20116;-70
2021/01/06 12:02:30;;;;;;;44.15;19.52;;;;;;;5.21;88.05;99678.34;5054216;28;20539;-71
2021/01/06 12:05:24;;;;;;;40.70;20.67;;;;;;;5.16;87.75;99681.22;5052308;28;20082;-72